sensor_id;sensor_type;location;lat;lon;timestamp;P1;durP1;ratioP1;P2;durP2;ratioP2
8104;SDS011;4095;48.942;9.104;2023-12-22T00:01:46;6.03;;;2.10;;
8104;SDS011;4095;48.942;9.104;2023-12-22T00:04:12;4.53;;;2.47;;
8104;SDS011;4095;48.942;9.104;2023-12-22T00:06:38;4.33;;;1.80;;
8104;SDS011;4095;48.942;9.104;2023-12-22T00:09:05;4.67;;;1.47;;
8104;SDS011;4095;48.942;9.104;2023-12-22T00:11:31;6.10;;;2.13;;
8104;SDS011;4095;48.942;9.104;2023-12-22T00:13:56;4.63;;;1.80;;
8104;SDS011;4095;48.942;9.104;2023-12-22T00:16:22;5.67;;;2.00;;
8104;SDS011;4095;48.942;9.104;2023-12-22T00:18:47;7.33;;;1.87;;
8104;SDS011;4095;48.942;9.104;2023-12-22T00:21:13;4.07;;;1.97;;
8104;SDS011;4095;48.942;9.104;2023-12-22T00:23:39;4.10;;;1.70;;
8104;SDS011;4095;48.942;9.104;2023-12-22T00:26:07;6.13;;;1.90;;
8104;SDS011;4095;48.942;9.104;2023-12-22T00:28:33;4.63;;;2.00;;
8104;SDS011;4095;48.942;9.104;2023-12-22T00:30:58;5.20;;;1.83;;
8104;SDS011;4095;48.942;9.104;2023-12-22T00:33:25;2.30;;;1.40;;
8104;SDS011;4095;48.942;9.104;2023-12-22T00:35:51;1.90;;;0.80;;
8104;SDS011;4095;48.942;9.104;2023-12-22T00:38:16;1.57;;;1.20;;
8104;SDS011;4095;48.942;9.104;2023-12-22T00:40:43;2.13;;;1.30;;
8104;SDS011;4095;48.942;9.104;2023-12-22T00:43:08;2.77;;;1.47;;
8104;SDS011;4095;48.942;9.104;2023-12-22T00:45:34;2.83;;;1.27;;
8104;SDS011;4095;48.942;9.104;2023-12-22T00:48:00;2.67;;;1.33;;
8104;SDS011;4095;48.942;9.104;2023-12-22T00:50:25;1.40;;;1.00;;
8104;SDS011;4095;48.942;9.104;2023-12-22T00:52:51;2.53;;;1.20;;
8104;SDS011;4095;48.942;9.104;2023-12-22T00:55:16;2.17;;;1.17;;
8104;SDS011;4095;48.942;9.104;2023-12-22T00:57:42;2.23;;;1.13;;
8104;SDS011;4095;48.942;9.104;2023-12-22T01:00:08;2.73;;;1.50;;
8104;SDS011;4095;48.942;9.104;2023-12-22T01:02:37;3.47;;;1.50;;
8104;SDS011;4095;48.942;9.104;2023-12-22T01:05:03;3.17;;;1.60;;
8104;SDS011;4095;48.942;9.104;2023-12-22T01:07:29;4.90;;;1.93;;
8104;SDS011;4095;48.942;9.104;2023-12-22T01:09:55;3.13;;;1.80;;
8104;SDS011;4095;48.942;9.104;2023-12-22T01:12:21;5.10;;;2.00;;
8104;SDS011;4095;48.942;9.104;2023-12-22T01:14:46;5.93;;;2.10;;
8104;SDS011;4095;48.942;9.104;2023-12-22T01:17:14;5.10;;;1.77;;
8104;SDS011;4095;48.942;9.104;2023-12-22T01:19:39;8.40;;;2.30;;
8104;SDS011;4095;48.942;9.104;2023-12-22T01:22:05;5.13;;;2.17;;
8104;SDS011;4095;48.942;9.104;2023-12-22T01:24:31;5.87;;;2.00;;
8104;SDS011;4095;48.942;9.104;2023-12-22T01:26:57;6.37;;;2.10;;
8104;SDS011;4095;48.942;9.104;2023-12-22T01:29:23;5.73;;;2.30;;
8104;SDS011;4095;48.942;9.104;2023-12-22T01:31:49;6.63;;;2.17;;
8104;SDS011;4095;48.942;9.104;2023-12-22T01:34:14;6.13;;;2.07;;
8104;SDS011;4095;48.942;9.104;2023-12-22T01:36:40;7.80;;;2.30;;
8104;SDS011;4095;48.942;9.104;2023-12-22T01:39:06;6.80;;;2.47;;
8104;SDS011;4095;48.942;9.104;2023-12-22T01:41:32;6.17;;;2.10;;
8104;SDS011;4095;48.942;9.104;2023-12-22T01:43:57;8.50;;;2.30;;
8104;SDS011;4095;48.942;9.104;2023-12-22T01:46:23;5.67;;;1.97;;
8104;SDS011;4095;48.942;9.104;2023-12-22T01:48:49;5.67;;;2.37;;
8104;SDS011;4095;48.942;9.104;2023-12-22T01:51:15;5.27;;;2.00;;
8104;SDS011;4095;48.942;9.104;2023-12-22T01:53:41;5.33;;;2.10;;
8104;SDS011;4095;48.942;9.104;2023-12-22T01:56:06;5.83;;;2.17;;
8104;SDS011;4095;48.942;9.104;2023-12-22T01:58:33;4.40;;;1.97;;
8104;SDS011;4095;48.942;9.104;2023-12-22T02:01:01;4.70;;;1.90;;
8104;SDS011;4095;48.942;9.104;2023-12-22T02:03:27;6.93;;;2.20;;
8104;SDS011;4095;48.942;9.104;2023-12-22T02:05:53;4.17;;;1.93;;
8104;SDS011;4095;48.942;9.104;2023-12-22T02:08:19;5.13;;;1.97;;
8104;SDS011;4095;48.942;9.104;2023-12-22T02:10:47;3.63;;;1.70;;
8104;SDS011;4095;48.942;9.104;2023-12-22T02:13:13;5.13;;;1.70;;
8104;SDS011;4095;48.942;9.104;2023-12-22T02:15:39;4.63;;;1.83;;
8104;SDS011;4095;48.942;9.104;2023-12-22T02:18:16;5.03;;;1.60;;
8104;SDS011;4095;48.942;9.104;2023-12-22T02:20:46;3.13;;;1.57;;
8104;SDS011;4095;48.942;9.104;2023-12-22T02:23:12;4.93;;;1.57;;
8104;SDS011;4095;48.942;9.104;2023-12-22T02:25:38;3.77;;;1.23;;
8104;SDS011;4095;48.942;9.104;2023-12-22T02:28:05;4.53;;;1.60;;
8104;SDS011;4095;48.942;9.104;2023-12-22T02:30:37;2.90;;;1.23;;
8104;SDS011;4095;48.942;9.104;2023-12-22T02:33:19;2.83;;;1.37;;
8104;SDS011;4095;48.942;9.104;2023-12-22T02:35:49;2.37;;;1.23;;
8104;SDS011;4095;48.942;9.104;2023-12-22T02:38:16;3.40;;;1.10;;
8104;SDS011;4095;48.942;9.104;2023-12-22T02:40:42;4.23;;;1.30;;
8104;SDS011;4095;48.942;9.104;2023-12-22T02:43:09;4.17;;;1.23;;
8104;SDS011;4095;48.942;9.104;2023-12-22T02:45:34;2.57;;;1.20;;
8104;SDS011;4095;48.942;9.104;2023-12-22T02:48:00;2.87;;;1.47;;
8104;SDS011;4095;48.942;9.104;2023-12-22T02:50:26;3.13;;;1.33;;
8104;SDS011;4095;48.942;9.104;2023-12-22T02:52:51;3.27;;;1.50;;
8104;SDS011;4095;48.942;9.104;2023-12-22T02:55:17;3.17;;;1.40;;
8104;SDS011;4095;48.942;9.104;2023-12-22T02:57:42;3.57;;;1.53;;
8104;SDS011;4095;48.942;9.104;2023-12-22T03:00:08;4.57;;;1.43;;
8104;SDS011;4095;48.942;9.104;2023-12-22T03:02:34;3.63;;;1.53;;
8104;SDS011;4095;48.942;9.104;2023-12-22T03:05:00;4.43;;;1.43;;
8104;SDS011;4095;48.942;9.104;2023-12-22T03:07:25;5.33;;;1.70;;
8104;SDS011;4095;48.942;9.104;2023-12-22T03:09:51;4.67;;;1.63;;
8104;SDS011;4095;48.942;9.104;2023-12-22T03:12:16;4.90;;;1.60;;
8104;SDS011;4095;48.942;9.104;2023-12-22T03:14:42;3.73;;;1.67;;
8104;SDS011;4095;48.942;9.104;2023-12-22T03:17:08;7.13;;;1.70;;
8104;SDS011;4095;48.942;9.104;2023-12-22T03:19:34;2.97;;;1.57;;
8104;SDS011;4095;48.942;9.104;2023-12-22T03:22:00;2.77;;;1.23;;
8104;SDS011;4095;48.942;9.104;2023-12-22T03:24:26;7.97;;;2.10;;
8104;SDS011;4095;48.942;9.104;2023-12-22T03:26:53;5.27;;;1.70;;
8104;SDS011;4095;48.942;9.104;2023-12-22T03:29:19;4.13;;;1.93;;
8104;SDS011;4095;48.942;9.104;2023-12-22T03:31:45;6.57;;;1.77;;
8104;SDS011;4095;48.942;9.104;2023-12-22T03:34:11;7.17;;;2.03;;
8104;SDS011;4095;48.942;9.104;2023-12-22T03:36:37;4.30;;;1.73;;
8104;SDS011;4095;48.942;9.104;2023-12-22T03:39:03;5.13;;;1.63;;
8104;SDS011;4095;48.942;9.104;2023-12-22T03:41:29;5.80;;;1.60;;
8104;SDS011;4095;48.942;9.104;2023-12-22T03:43:55;6.30;;;1.80;;
8104;SDS011;4095;48.942;9.104;2023-12-22T03:46:21;6.87;;;1.87;;
8104;SDS011;4095;48.942;9.104;2023-12-22T03:48:50;6.00;;;1.70;;
8104;SDS011;4095;48.942;9.104;2023-12-22T03:51:15;4.60;;;1.80;;
8104;SDS011;4095;48.942;9.104;2023-12-22T03:53:41;5.20;;;1.60;;
8104;SDS011;4095;48.942;9.104;2023-12-22T03:56:07;4.27;;;1.40;;
8104;SDS011;4095;48.942;9.104;2023-12-22T03:58:34;5.60;;;1.73;;
8104;SDS011;4095;48.942;9.104;2023-12-22T04:01:00;5.73;;;1.73;;
8104;SDS011;4095;48.942;9.104;2023-12-22T04:03:25;5.67;;;2.10;;
8104;SDS011;4095;48.942;9.104;2023-12-22T04:05:51;2.90;;;1.37;;
8104;SDS011;4095;48.942;9.104;2023-12-22T04:08:17;4.37;;;1.23;;
8104;SDS011;4095;48.942;9.104;2023-12-22T04:10:42;4.30;;;1.60;;
8104;SDS011;4095;48.942;9.104;2023-12-22T04:13:09;2.60;;;1.27;;
8104;SDS011;4095;48.942;9.104;2023-12-22T04:15:35;2.50;;;1.10;;
8104;SDS011;4095;48.942;9.104;2023-12-22T04:18:00;2.20;;;1.30;;
8104;SDS011;4095;48.942;9.104;2023-12-22T04:20:26;3.43;;;1.33;;
8104;SDS011;4095;48.942;9.104;2023-12-22T04:22:51;3.20;;;1.30;;
8104;SDS011;4095;48.942;9.104;2023-12-22T04:25:17;4.73;;;1.77;;
8104;SDS011;4095;48.942;9.104;2023-12-22T04:27:43;4.70;;;1.20;;
8104;SDS011;4095;48.942;9.104;2023-12-22T04:30:08;2.57;;;1.30;;
8104;SDS011;4095;48.942;9.104;2023-12-22T04:32:34;5.00;;;1.67;;
8104;SDS011;4095;48.942;9.104;2023-12-22T04:35:00;5.53;;;1.90;;
8104;SDS011;4095;48.942;9.104;2023-12-22T04:37:25;8.13;;;2.00;;
8104;SDS011;4095;48.942;9.104;2023-12-22T04:39:51;6.53;;;1.93;;
8104;SDS011;4095;48.942;9.104;2023-12-22T04:42:17;5.10;;;1.80;;
8104;SDS011;4095;48.942;9.104;2023-12-22T04:44:43;6.10;;;2.07;;
8104;SDS011;4095;48.942;9.104;2023-12-22T04:47:09;8.93;;;2.10;;
8104;SDS011;4095;48.942;9.104;2023-12-22T04:49:34;5.17;;;1.70;;
8104;SDS011;4095;48.942;9.104;2023-12-22T04:52:00;7.63;;;2.33;;
8104;SDS011;4095;48.942;9.104;2023-12-22T04:54:25;6.77;;;1.97;;
8104;SDS011;4095;48.942;9.104;2023-12-22T04:56:51;4.37;;;2.00;;
8104;SDS011;4095;48.942;9.104;2023-12-22T04:59:16;6.70;;;2.00;;
8104;SDS011;4095;48.942;9.104;2023-12-22T05:01:42;6.50;;;2.13;;
8104;SDS011;4095;48.942;9.104;2023-12-22T05:04:08;7.67;;;2.37;;
8104;SDS011;4095;48.942;9.104;2023-12-22T05:06:34;7.83;;;2.33;;
8104;SDS011;4095;48.942;9.104;2023-12-22T05:09:00;6.07;;;2.00;;
8104;SDS011;4095;48.942;9.104;2023-12-22T05:11:25;5.40;;;2.10;;
8104;SDS011;4095;48.942;9.104;2023-12-22T05:13:51;6.00;;;2.10;;
8104;SDS011;4095;48.942;9.104;2023-12-22T05:16:17;8.63;;;2.23;;
8104;SDS011;4095;48.942;9.104;2023-12-22T05:18:42;6.70;;;2.37;;
8104;SDS011;4095;48.942;9.104;2023-12-22T05:21:08;5.27;;;2.10;;
8104;SDS011;4095;48.942;9.104;2023-12-22T05:23:37;7.53;;;2.47;;
8104;SDS011;4095;48.942;9.104;2023-12-22T05:26:03;5.03;;;1.90;;
8104;SDS011;4095;48.942;9.104;2023-12-22T05:28:29;6.47;;;1.87;;
8104;SDS011;4095;48.942;9.104;2023-12-22T05:30:54;7.53;;;2.30;;
8104;SDS011;4095;48.942;9.104;2023-12-22T05:33:20;8.13;;;2.53;;
8104;SDS011;4095;48.942;9.104;2023-12-22T05:35:45;5.23;;;2.30;;
8104;SDS011;4095;48.942;9.104;2023-12-22T05:38:11;6.57;;;2.50;;
8104;SDS011;4095;48.942;9.104;2023-12-22T05:40:36;8.73;;;2.40;;
8104;SDS011;4095;48.942;9.104;2023-12-22T05:43:02;8.13;;;2.40;;
8104;SDS011;4095;48.942;9.104;2023-12-22T05:45:28;10.50;;;2.57;;
8104;SDS011;4095;48.942;9.104;2023-12-22T05:47:53;10.33;;;2.87;;
8104;SDS011;4095;48.942;9.104;2023-12-22T05:50:19;10.27;;;2.63;;
8104;SDS011;4095;48.942;9.104;2023-12-22T05:52:44;11.53;;;3.30;;
8104;SDS011;4095;48.942;9.104;2023-12-22T05:55:10;11.80;;;3.13;;
8104;SDS011;4095;48.942;9.104;2023-12-22T05:57:36;13.70;;;2.87;;
8104;SDS011;4095;48.942;9.104;2023-12-22T06:00:02;9.20;;;2.57;;
8104;SDS011;4095;48.942;9.104;2023-12-22T06:02:32;7.80;;;2.53;;
8104;SDS011;4095;48.942;9.104;2023-12-22T06:04:58;9.80;;;3.00;;
8104;SDS011;4095;48.942;9.104;2023-12-22T06:07:24;8.37;;;2.67;;
8104;SDS011;4095;48.942;9.104;2023-12-22T06:09:51;8.97;;;2.83;;
8104;SDS011;4095;48.942;9.104;2023-12-22T06:12:16;8.77;;;2.67;;
8104;SDS011;4095;48.942;9.104;2023-12-22T06:14:42;7.70;;;2.93;;
8104;SDS011;4095;48.942;9.104;2023-12-22T06:17:07;8.63;;;2.40;;
8104;SDS011;4095;48.942;9.104;2023-12-22T06:19:35;8.43;;;2.90;;
8104;SDS011;4095;48.942;9.104;2023-12-22T06:22:00;8.33;;;2.57;;
8104;SDS011;4095;48.942;9.104;2023-12-22T06:24:26;10.43;;;2.80;;
8104;SDS011;4095;48.942;9.104;2023-12-22T06:26:52;8.20;;;2.30;;
8104;SDS011;4095;48.942;9.104;2023-12-22T06:29:18;11.13;;;3.00;;
8104;SDS011;4095;48.942;9.104;2023-12-22T06:31:43;7.40;;;2.60;;
8104;SDS011;4095;48.942;9.104;2023-12-22T06:34:09;10.10;;;3.50;;
8104;SDS011;4095;48.942;9.104;2023-12-22T06:36:34;15.53;;;5.90;;
8104;SDS011;4095;48.942;9.104;2023-12-22T06:39:00;8.43;;;2.87;;
8104;SDS011;4095;48.942;9.104;2023-12-22T06:41:26;12.07;;;3.60;;
8104;SDS011;4095;48.942;9.104;2023-12-22T06:43:56;11.83;;;3.10;;
8104;SDS011;4095;48.942;9.104;2023-12-22T06:46:24;8.93;;;2.67;;
8104;SDS011;4095;48.942;9.104;2023-12-22T06:48:56;10.07;;;3.30;;
8104;SDS011;4095;48.942;9.104;2023-12-22T06:51:30;9.23;;;2.97;;
8104;SDS011;4095;48.942;9.104;2023-12-22T06:53:56;10.07;;;2.97;;
8104;SDS011;4095;48.942;9.104;2023-12-22T06:56:26;10.20;;;2.50;;
8104;SDS011;4095;48.942;9.104;2023-12-22T06:58:53;8.00;;;2.73;;
8104;SDS011;4095;48.942;9.104;2023-12-22T07:01:22;8.57;;;2.50;;
8104;SDS011;4095;48.942;9.104;2023-12-22T07:03:49;8.20;;;2.97;;
8104;SDS011;4095;48.942;9.104;2023-12-22T07:06:16;7.83;;;2.50;;
8104;SDS011;4095;48.942;9.104;2023-12-22T07:11:36;7.27;;;2.47;;
8104;SDS011;4095;48.942;9.104;2023-12-22T07:14:02;7.80;;;2.60;;
8104;SDS011;4095;48.942;9.104;2023-12-22T07:16:27;10.03;;;2.70;;
8104;SDS011;4095;48.942;9.104;2023-12-22T07:18:53;8.27;;;2.83;;
8104;SDS011;4095;48.942;9.104;2023-12-22T07:21:19;12.17;;;3.27;;
8104;SDS011;4095;48.942;9.104;2023-12-22T07:23:45;11.47;;;2.80;;
8104;SDS011;4095;48.942;9.104;2023-12-22T07:26:10;8.00;;;3.10;;
8104;SDS011;4095;48.942;9.104;2023-12-22T07:28:36;11.70;;;3.03;;
8104;SDS011;4095;48.942;9.104;2023-12-22T07:31:02;9.13;;;3.10;;
8104;SDS011;4095;48.942;9.104;2023-12-22T07:33:27;9.43;;;2.57;;
8104;SDS011;4095;48.942;9.104;2023-12-22T07:35:53;9.63;;;2.60;;
8104;SDS011;4095;48.942;9.104;2023-12-22T07:38:19;10.07;;;3.20;;
8104;SDS011;4095;48.942;9.104;2023-12-22T07:40:45;9.93;;;2.73;;
8104;SDS011;4095;48.942;9.104;2023-12-22T07:43:11;8.80;;;2.73;;
8104;SDS011;4095;48.942;9.104;2023-12-22T07:45:36;8.77;;;2.80;;
8104;SDS011;4095;48.942;9.104;2023-12-22T07:48:02;9.33;;;3.13;;
8104;SDS011;4095;48.942;9.104;2023-12-22T07:50:28;9.83;;;2.73;;
8104;SDS011;4095;48.942;9.104;2023-12-22T07:52:54;7.67;;;2.73;;
8104;SDS011;4095;48.942;9.104;2023-12-22T07:55:19;9.90;;;3.17;;
8104;SDS011;4095;48.942;9.104;2023-12-22T07:57:45;11.30;;;3.27;;
8104;SDS011;4095;48.942;9.104;2023-12-22T08:00:11;9.70;;;3.27;;
8104;SDS011;4095;48.942;9.104;2023-12-22T08:02:37;7.10;;;2.53;;
8104;SDS011;4095;48.942;9.104;2023-12-22T08:05:03;12.50;;;2.50;;
8104;SDS011;4095;48.942;9.104;2023-12-22T08:07:29;11.13;;;3.13;;
8104;SDS011;4095;48.942;9.104;2023-12-22T08:09:55;11.10;;;3.00;;
8104;SDS011;4095;48.942;9.104;2023-12-22T08:12:21;8.17;;;2.70;;
8104;SDS011;4095;48.942;9.104;2023-12-22T08:14:47;10.03;;;2.77;;
8104;SDS011;4095;48.942;9.104;2023-12-22T08:17:13;10.30;;;3.30;;
8104;SDS011;4095;48.942;9.104;2023-12-22T08:19:38;10.43;;;3.17;;
8104;SDS011;4095;48.942;9.104;2023-12-22T08:22:07;12.17;;;3.17;;
8104;SDS011;4095;48.942;9.104;2023-12-22T08:24:38;9.27;;;2.80;;
8104;SDS011;4095;48.942;9.104;2023-12-22T08:27:06;11.33;;;3.40;;
8104;SDS011;4095;48.942;9.104;2023-12-22T08:29:32;11.07;;;3.20;;
8104;SDS011;4095;48.942;9.104;2023-12-22T08:31:58;8.90;;;3.03;;
8104;SDS011;4095;48.942;9.104;2023-12-22T08:34:25;8.70;;;2.80;;
8104;SDS011;4095;48.942;9.104;2023-12-22T08:36:51;11.37;;;2.93;;
8104;SDS011;4095;48.942;9.104;2023-12-22T08:39:16;12.43;;;3.23;;
8104;SDS011;4095;48.942;9.104;2023-12-22T08:41:42;14.03;;;3.57;;
8104;SDS011;4095;48.942;9.104;2023-12-22T08:44:08;10.23;;;3.40;;
8104;SDS011;4095;48.942;9.104;2023-12-22T08:46:34;13.43;;;3.30;;
8104;SDS011;4095;48.942;9.104;2023-12-22T08:49:00;13.47;;;3.70;;
8104;SDS011;4095;48.942;9.104;2023-12-22T08:51:26;13.03;;;3.73;;
8104;SDS011;4095;48.942;9.104;2023-12-22T08:53:53;11.20;;;3.90;;
8104;SDS011;4095;48.942;9.104;2023-12-22T08:56:20;13.87;;;3.83;;
8104;SDS011;4095;48.942;9.104;2023-12-22T08:58:46;11.63;;;3.57;;
8104;SDS011;4095;48.942;9.104;2023-12-22T09:01:15;16.67;;;4.47;;
8104;SDS011;4095;48.942;9.104;2023-12-22T09:03:41;15.30;;;3.87;;
8104;SDS011;4095;48.942;9.104;2023-12-22T09:06:11;13.23;;;4.00;;
8104;SDS011;4095;48.942;9.104;2023-12-22T09:08:40;15.93;;;4.00;;
8104;SDS011;4095;48.942;9.104;2023-12-22T09:11:11;17.73;;;4.47;;
8104;SDS011;4095;48.942;9.104;2023-12-22T09:13:37;13.93;;;4.27;;
8104;SDS011;4095;48.942;9.104;2023-12-22T09:16:04;16.97;;;4.27;;
8104;SDS011;4095;48.942;9.104;2023-12-22T09:18:30;16.80;;;4.50;;
8104;SDS011;4095;48.942;9.104;2023-12-22T09:20:56;16.20;;;4.27;;
8104;SDS011;4095;48.942;9.104;2023-12-22T09:23:22;14.10;;;3.60;;
8104;SDS011;4095;48.942;9.104;2023-12-22T09:25:48;15.30;;;3.97;;
8104;SDS011;4095;48.942;9.104;2023-12-22T09:28:14;16.07;;;4.50;;
8104;SDS011;4095;48.942;9.104;2023-12-22T09:30:39;16.17;;;4.07;;
8104;SDS011;4095;48.942;9.104;2023-12-22T09:33:05;14.30;;;3.83;;
8104;SDS011;4095;48.942;9.104;2023-12-22T09:35:30;13.63;;;4.00;;
8104;SDS011;4095;48.942;9.104;2023-12-22T09:37:56;17.23;;;4.60;;
8104;SDS011;4095;48.942;9.104;2023-12-22T09:40:21;13.43;;;3.83;;
8104;SDS011;4095;48.942;9.104;2023-12-22T09:42:47;12.60;;;4.00;;
8104;SDS011;4095;48.942;9.104;2023-12-22T09:45:15;15.03;;;4.53;;
8104;SDS011;4095;48.942;9.104;2023-12-22T09:47:45;14.27;;;3.80;;
8104;SDS011;4095;48.942;9.104;2023-12-22T09:50:11;14.63;;;3.63;;
8104;SDS011;4095;48.942;9.104;2023-12-22T09:52:38;15.40;;;3.80;;
8104;SDS011;4095;48.942;9.104;2023-12-22T09:55:07;15.67;;;4.83;;
8104;SDS011;4095;48.942;9.104;2023-12-22T09:57:34;10.47;;;3.70;;
8104;SDS011;4095;48.942;9.104;2023-12-22T10:00:02;13.73;;;3.63;;
8104;SDS011;4095;48.942;9.104;2023-12-22T10:02:31;12.50;;;3.80;;
8104;SDS011;4095;48.942;9.104;2023-12-22T10:04:59;12.30;;;3.70;;
8104;SDS011;4095;48.942;9.104;2023-12-22T10:07:25;16.10;;;3.97;;
8104;SDS011;4095;48.942;9.104;2023-12-22T10:09:52;13.67;;;3.87;;
8104;SDS011;4095;48.942;9.104;2023-12-22T10:12:20;17.97;;;4.30;;
8104;SDS011;4095;48.942;9.104;2023-12-22T10:14:47;15.53;;;4.27;;
8104;SDS011;4095;48.942;9.104;2023-12-22T10:17:13;13.57;;;3.87;;
8104;SDS011;4095;48.942;9.104;2023-12-22T10:19:40;18.90;;;5.37;;
8104;SDS011;4095;48.942;9.104;2023-12-22T10:22:06;17.17;;;4.43;;
8104;SDS011;4095;48.942;9.104;2023-12-22T10:27:04;13.53;;;4.60;;
8104;SDS011;4095;48.942;9.104;2023-12-22T10:29:30;12.33;;;4.17;;
8104;SDS011;4095;48.942;9.104;2023-12-22T10:31:57;13.53;;;4.17;;
8104;SDS011;4095;48.942;9.104;2023-12-22T10:34:23;15.37;;;4.03;;
8104;SDS011;4095;48.942;9.104;2023-12-22T10:36:49;16.70;;;3.87;;
8104;SDS011;4095;48.942;9.104;2023-12-22T10:39:14;19.17;;;4.37;;
8104;SDS011;4095;48.942;9.104;2023-12-22T10:41:40;13.70;;;3.70;;
8104;SDS011;4095;48.942;9.104;2023-12-22T10:44:06;16.30;;;3.77;;
8104;SDS011;4095;48.942;9.104;2023-12-22T10:46:32;14.17;;;4.17;;
8104;SDS011;4095;48.942;9.104;2023-12-22T10:48:59;13.43;;;3.70;;
8104;SDS011;4095;48.942;9.104;2023-12-22T10:51:24;13.77;;;3.60;;
8104;SDS011;4095;48.942;9.104;2023-12-22T10:53:51;10.83;;;3.80;;
8104;SDS011;4095;48.942;9.104;2023-12-22T10:56:17;12.60;;;3.40;;
8104;SDS011;4095;48.942;9.104;2023-12-22T10:58:42;12.00;;;4.10;;
8104;SDS011;4095;48.942;9.104;2023-12-22T11:01:11;10.80;;;3.63;;
8104;SDS011;4095;48.942;9.104;2023-12-22T11:03:39;9.90;;;3.30;;
8104;SDS011;4095;48.942;9.104;2023-12-22T11:06:06;14.47;;;3.73;;
8104;SDS011;4095;48.942;9.104;2023-12-22T11:08:35;13.63;;;3.33;;
8104;SDS011;4095;48.942;9.104;2023-12-22T11:11:02;12.83;;;3.67;;
8104;SDS011;4095;48.942;9.104;2023-12-22T11:13:39;11.90;;;3.50;;
8104;SDS011;4095;48.942;9.104;2023-12-22T11:16:05;9.13;;;3.43;;
8104;SDS011;4095;48.942;9.104;2023-12-22T11:18:32;9.30;;;3.43;;
8104;SDS011;4095;48.942;9.104;2023-12-22T11:21:00;12.80;;;2.90;;
8104;SDS011;4095;48.942;9.104;2023-12-22T11:23:30;11.73;;;3.53;;
8104;SDS011;4095;48.942;9.104;2023-12-22T11:25:57;7.63;;;2.73;;
8104;SDS011;4095;48.942;9.104;2023-12-22T11:28:24;7.50;;;2.63;;
8104;SDS011;4095;48.942;9.104;2023-12-22T11:30:50;9.53;;;2.67;;
8104;SDS011;4095;48.942;9.104;2023-12-22T11:33:17;11.83;;;2.83;;
8104;SDS011;4095;48.942;9.104;2023-12-22T11:35:43;9.20;;;2.63;;
8104;SDS011;4095;48.942;9.104;2023-12-22T11:38:11;7.73;;;2.93;;
8104;SDS011;4095;48.942;9.104;2023-12-22T11:40:36;8.37;;;2.40;;
8104;SDS011;4095;48.942;9.104;2023-12-22T11:43:02;8.97;;;3.00;;
8104;SDS011;4095;48.942;9.104;2023-12-22T11:45:32;11.13;;;2.63;;
8104;SDS011;4095;48.942;9.104;2023-12-22T11:48:04;10.20;;;3.07;;
8104;SDS011;4095;48.942;9.104;2023-12-22T11:50:34;6.33;;;2.73;;
8104;SDS011;4095;48.942;9.104;2023-12-22T11:55:58;6.73;;;2.60;;
8104;SDS011;4095;48.942;9.104;2023-12-22T11:58:35;8.90;;;3.00;;
8104;SDS011;4095;48.942;9.104;2023-12-22T12:01:02;8.43;;;3.07;;
8104;SDS011;4095;48.942;9.104;2023-12-22T12:03:31;6.53;;;2.50;;
8104;SDS011;4095;48.942;9.104;2023-12-22T12:06:16;8.17;;;3.17;;
8104;SDS011;4095;48.942;9.104;2023-12-22T12:08:47;9.50;;;3.40;;
8104;SDS011;4095;48.942;9.104;2023-12-22T12:11:14;6.87;;;2.90;;
8104;SDS011;4095;48.942;9.104;2023-12-22T12:13:44;7.30;;;2.30;;
8104;SDS011;4095;48.942;9.104;2023-12-22T12:16:11;5.03;;;1.97;;
8104;SDS011;4095;48.942;9.104;2023-12-22T12:18:38;6.27;;;2.00;;
8104;SDS011;4095;48.942;9.104;2023-12-22T12:21:08;6.70;;;2.50;;
8104;SDS011;4095;48.942;9.104;2023-12-22T12:23:35;4.33;;;1.70;;
8104;SDS011;4095;48.942;9.104;2023-12-22T12:26:01;4.20;;;1.70;;
8104;SDS011;4095;48.942;9.104;2023-12-22T12:28:30;4.13;;;1.50;;
8104;SDS011;4095;48.942;9.104;2023-12-22T12:30:57;4.83;;;1.97;;
8104;SDS011;4095;48.942;9.104;2023-12-22T12:33:27;3.23;;;1.70;;
8104;SDS011;4095;48.942;9.104;2023-12-22T12:35:54;5.67;;;1.50;;
8104;SDS011;4095;48.942;9.104;2023-12-22T12:38:23;4.00;;;1.60;;
8104;SDS011;4095;48.942;9.104;2023-12-22T12:41:05;3.73;;;1.60;;
8104;SDS011;4095;48.942;9.104;2023-12-22T12:43:31;3.67;;;1.50;;
8104;SDS011;4095;48.942;9.104;2023-12-22T12:46:04;1.70;;;1.43;;
8104;SDS011;4095;48.942;9.104;2023-12-22T12:48:30;3.30;;;1.53;;
8104;SDS011;4095;48.942;9.104;2023-12-22T12:51:00;1.80;;;1.13;;
8104;SDS011;4095;48.942;9.104;2023-12-22T12:53:28;1.73;;;0.90;;
8104;SDS011;4095;48.942;9.104;2023-12-22T12:55:56;2.53;;;1.20;;
8104;SDS011;4095;48.942;9.104;2023-12-22T12:58:26;2.63;;;1.20;;
8104;SDS011;4095;48.942;9.104;2023-12-22T13:01:08;1.90;;;1.20;;
8104;SDS011;4095;48.942;9.104;2023-12-22T13:06:19;1.90;;;1.23;;
8104;SDS011;4095;48.942;9.104;2023-12-22T13:08:49;1.47;;;0.80;;
8104;SDS011;4095;48.942;9.104;2023-12-22T13:11:15;2.73;;;1.10;;
8104;SDS011;4095;48.942;9.104;2023-12-22T13:13:45;1.23;;;0.80;;
8104;SDS011;4095;48.942;9.104;2023-12-22T13:16:10;1.57;;;0.90;;
8104;SDS011;4095;48.942;9.104;2023-12-22T13:18:36;1.23;;;0.90;;
8104;SDS011;4095;48.942;9.104;2023-12-22T13:21:03;1.37;;;1.03;;
8104;SDS011;4095;48.942;9.104;2023-12-22T13:23:29;2.37;;;1.13;;
8104;SDS011;4095;48.942;9.104;2023-12-22T13:25:54;1.60;;;1.10;;
8104;SDS011;4095;48.942;9.104;2023-12-22T13:28:26;2.97;;;1.73;;
8104;SDS011;4095;48.942;9.104;2023-12-22T13:30:55;1.07;;;0.70;;
8104;SDS011;4095;48.942;9.104;2023-12-22T13:33:21;0.97;;;0.83;;
8104;SDS011;4095;48.942;9.104;2023-12-22T13:35:49;1.33;;;0.70;;
8104;SDS011;4095;48.942;9.104;2023-12-22T13:38:15;1.30;;;0.80;;
8104;SDS011;4095;48.942;9.104;2023-12-22T13:40:44;1.20;;;0.80;;
8104;SDS011;4095;48.942;9.104;2023-12-22T13:43:11;1.63;;;0.90;;
8104;SDS011;4095;48.942;9.104;2023-12-22T13:45:37;0.87;;;0.63;;
8104;SDS011;4095;48.942;9.104;2023-12-22T13:48:03;2.17;;;0.90;;
8104;SDS011;4095;48.942;9.104;2023-12-22T13:50:30;1.57;;;1.00;;
8104;SDS011;4095;48.942;9.104;2023-12-22T13:52:56;0.80;;;0.80;;
8104;SDS011;4095;48.942;9.104;2023-12-22T13:55:32;1.47;;;0.90;;
8104;SDS011;4095;48.942;9.104;2023-12-22T13:58:02;1.10;;;1.00;;
8104;SDS011;4095;48.942;9.104;2023-12-22T14:00:28;2.33;;;1.00;;
8104;SDS011;4095;48.942;9.104;2023-12-22T14:02:56;1.27;;;0.83;;
8104;SDS011;4095;48.942;9.104;2023-12-22T14:05:21;2.10;;;0.93;;
8104;SDS011;4095;48.942;9.104;2023-12-22T14:07:47;1.13;;;0.93;;
8104;SDS011;4095;48.942;9.104;2023-12-22T14:10:13;1.10;;;0.90;;
8104;SDS011;4095;48.942;9.104;2023-12-22T14:12:39;1.50;;;1.30;;
8104;SDS011;4095;48.942;9.104;2023-12-22T14:17:32;1.13;;;0.80;;
8104;SDS011;4095;48.942;9.104;2023-12-22T14:19:58;0.77;;;0.70;;
8104;SDS011;4095;48.942;9.104;2023-12-22T14:22:23;1.20;;;0.80;;
8104;SDS011;4095;48.942;9.104;2023-12-22T14:24:49;1.23;;;1.13;;
8104;SDS011;4095;48.942;9.104;2023-12-22T14:27:15;0.63;;;0.60;;
8104;SDS011;4095;48.942;9.104;2023-12-22T14:29:43;1.10;;;0.80;;
8104;SDS011;4095;48.942;9.104;2023-12-22T14:32:11;1.10;;;0.73;;
8104;SDS011;4095;48.942;9.104;2023-12-22T14:34:39;2.07;;;0.90;;
8104;SDS011;4095;48.942;9.104;2023-12-22T14:37:08;1.57;;;0.80;;
8104;SDS011;4095;48.942;9.104;2023-12-22T14:39:33;1.07;;;0.60;;
8104;SDS011;4095;48.942;9.104;2023-12-22T14:42:00;1.23;;;0.73;;
8104;SDS011;4095;48.942;9.104;2023-12-22T14:44:28;0.60;;;0.60;;
8104;SDS011;4095;48.942;9.104;2023-12-22T14:46:53;0.87;;;0.70;;
8104;SDS011;4095;48.942;9.104;2023-12-22T14:49:19;0.53;;;0.53;;
8104;SDS011;4095;48.942;9.104;2023-12-22T14:51:44;1.03;;;0.63;;
8104;SDS011;4095;48.942;9.104;2023-12-22T14:54:12;0.50;;;0.50;;
8104;SDS011;4095;48.942;9.104;2023-12-22T14:56:38;2.00;;;0.90;;
8104;SDS011;4095;48.942;9.104;2023-12-22T14:59:05;0.60;;;0.60;;
8104;SDS011;4095;48.942;9.104;2023-12-22T15:01:35;1.13;;;0.97;;
8104;SDS011;4095;48.942;9.104;2023-12-22T15:04:06;1.43;;;0.67;;
8104;SDS011;4095;48.942;9.104;2023-12-22T15:06:32;1.03;;;0.93;;
8104;SDS011;4095;48.942;9.104;2023-12-22T15:08:58;1.20;;;0.90;;
8104;SDS011;4095;48.942;9.104;2023-12-22T15:11:26;1.63;;;0.97;;
8104;SDS011;4095;48.942;9.104;2023-12-22T15:13:52;0.80;;;0.80;;
8104;SDS011;4095;48.942;9.104;2023-12-22T15:16:17;1.33;;;1.00;;
8104;SDS011;4095;48.942;9.104;2023-12-22T15:18:43;0.83;;;0.80;;
8104;SDS011;4095;48.942;9.104;2023-12-22T15:21:09;1.37;;;0.90;;
8104;SDS011;4095;48.942;9.104;2023-12-22T15:23:34;0.80;;;0.70;;